Time;durP1;ratioP1;P1;durP2;ratioP2;P2;SDS_P1;SDS_P2;PMS_P1;PMS_P2;Temp;Humidity;BMP_temperature;BMP_pressure;BME280_temperature;BME280_humidity;BME280_pressure;Samples;Min_cycle;Max_cycle;Signal;HPM_P1;HPM_P2
2021/09/14 00:01:38;;;;;;;;;;;;;;;;;;5077297;28;19924;-65
2021/09/14 00:04:05;;;;;;;;;;;;;;;;;;5084409;28;20284;-65
2021/09/14 00:06:34;;;;;;;;;;;;;;;;;;5084399;28;19924;-65
2021/09/14 00:09:01;;;;;;;;;;;;;;;;;;5086712;28;19924;-65
2021/09/14 00:11:28;;;;;;;;;;;;;;;;;;5086397;28;19928;-65
2021/09/14 00:13:55;;;;;;;;;;;;;;;;;;5089335;28;19928;-65
2021/09/14 00:16:22;;;;;;;;;;;;;;;;;;5089109;28;20336;-65
2021/09/14 00:18:50;;;;;;;;;;;;;;;;;;5084577;28;19928;-65
2021/09/14 00:21:17;;;;;;;;;;;;;;;;;;5090835;28;20390;-65
2021/09/14 00:23:44;;;;;;;;;;;;;;;;;;5089225;28;19928;-65
2021/09/14 00:26:11;;;;;;;;;;;;;;;;;;5088610;28;20015;-69
2021/09/14 00:28:38;;;;;;;;;;;;;;;;;;5091358;28;19924;-65
2021/09/14 00:31:05;;;;;;;;;;;;;;;;;;5090740;28;20406;-65
2021/09/14 00:33:32;;;;;;;;;;;;;;;;;;5089315;28;19931;-65
2021/09/14 00:35:59;;;;;;;;;;;;;;;;;;5081797;28;19932;-65
2021/09/14 00:38:27;;;;;;;;;;;;;;;;;;5091184;28;19924;-65
2021/09/14 00:40:54;;;;;;;;;;;;;;;;;;5077302;28;20308;-65
2021/09/14 00:43:21;;;;;;;;;;;;;;;;;;5089717;28;19930;-65
2021/09/14 00:45:48;;;;;;;;;;;;;;;;;;5088084;28;19936;-65
2021/09/14 00:48:15;;;;;;;;;;;;;;;;;;5091546;28;19928;-65
2021/09/14 00:50:42;;;;;;;;;;;;;;;;;;5089816;28;19931;-65
2021/09/14 00:53:09;;;;;;;;;;;;;;;;;;5089756;28;20031;-65
2021/09/14 00:55:36;;;;;;;;;;;;;;;;;;5087192;28;19925;-65
2021/09/14 00:58:03;;;;;;;;;;;;;;;;;;5090774;28;20471;-64
2021/09/14 01:00:30;;;;;;;;;;;;;;;;;;5089380;28;19968;-65
2021/09/14 01:02:57;;;;;;;;;;;;;;;;;;5089450;28;19924;-65
2021/09/14 01:05:24;;;;;;;;;;;;;;;;;;5087286;28;19925;-64
2021/09/14 01:07:51;;;;;;;;;;;;;;;;;;5090263;28;19932;-64
2021/09/14 01:10:18;;;;;;;;;;;;;;;;;;5090058;28;20374;-65
2021/09/14 01:12:45;;;;;;;;;;;;;;;;;;5089886;28;20030;-65
2021/09/14 01:15:12;;;;;;;;;;;;;;;;;;5086057;28;19925;-65
2021/09/14 01:17:39;;;;;;;;;;;;;;;;;;5090249;28;20292;-65
2021/09/14 01:20:06;;;;;;;;;;;;;;;;;;5089436;28;19928;-67
2021/09/14 01:22:33;;;;;;;;;;;;;;;;;;5089809;28;19924;-65
2021/09/14 01:25:00;;;;;;;;;;;;;;;;;;5080231;28;20304;-65
2021/09/14 01:27:27;;;;;;;;;;;;;;;;;;5089390;28;19935;-65
2021/09/14 01:30:13;;;;;;;;;;;;;;;;;;5083981;28;19931;-65
2021/09/14 01:32:40;;;;;;;;;;;;;;;;;;5086118;28;19924;-65
2021/09/14 01:35:07;;;;;;;;;;;;;;;;;;5087749;28;20396;-65
2021/09/14 01:37:34;;;;;;;;;;;;;;;;;;5089293;28;19930;-65
2021/09/14 01:40:01;;;;;;;;;;;;;;;;;;5089068;28;19930;-65
2021/09/14 01:42:28;;;;;;;;;;;;;;;;;;5087203;28;19923;-65
2021/09/14 01:44:55;;;;;;;;;;;;;;;;;;5087207;28;19929;-65
2021/09/14 01:47:22;;;;;;;;;;;;;;;;;;5089280;28;19925;-65
2021/09/14 01:49:49;;;;;;;;;;;;;;;;;;5087134;28;19924;-65
2021/09/14 01:52:16;;;;;;;;;;;;;;;;;;5081299;28;20398;-66
2021/09/14 01:54:43;;;;;;;;;;;;;;;;;;5086754;28;19924;-66
2021/09/14 01:57:10;;;;;;;;;;;;;;;;;;5089227;28;19924;-66
2021/09/14 01:59:37;;;;;;;;;;;;;;;;;;5084603;28;19924;-66
2021/09/14 02:02:10;;;;;;;;;;;;;;;;;;5073596;28;19934;-66
2021/09/14 02:04:45;;;;;;;;;;;;;;;;;;5086996;28;19931;-66
2021/09/14 02:24:05;;;;;;;;;;;;;;;;;;5086100;28;19965;-66
2021/09/14 02:40:50;;;;;;;;;;;;;;;;;;5087550;28;20339;-66
2021/09/14 02:59:44;;;;;;;;;;;;;;;;;;5055220;28;20435;-66
2021/09/14 03:02:11;;;;;;;;;;;;;;;;;;5086821;28;20016;-66
2021/09/14 03:04:38;;;;;;;;;;;;;;;;;;5088160;28;19924;-66
2021/09/14 03:07:05;;;;;;;;;;;;;;;;;;5081538;28;19934;-66
2021/09/14 03:09:32;;;;;;;;;;;;;;;;;;5085411;28;20392;-65
2021/09/14 03:11:59;;;;;;;;;;;;;;;;;;5087043;28;19930;-66
2021/09/14 03:14:26;;;;;;;;;;;;;;;;;;5087464;28;19924;-65
2021/09/14 03:16:53;;;;;;;;;;;;;;;;;;5085028;28;19924;-66
2021/09/14 03:19:20;;;;;;;;;;;;;;;;;;5085236;28;19924;-66
2021/09/14 03:21:47;;;;;;;;;;;;;;;;;;5087252;28;20402;-66
2021/09/14 03:24:14;;;;;;;;;;;;;;;;;;5088053;28;19924;-64
2021/09/14 03:26:41;;;;;;;;;;;;;;;;;;5087769;28;19924;-64
2021/09/14 03:29:08;;;;;;;;;;;;;;;;;;5087301;28;20588;-64
2021/09/14 03:31:36;;;;;;;;;;;;;;;;;;5088804;28;19928;-65
2021/09/14 03:34:03;;;;;;;;;;;;;;;;;;5088245;28;20299;-64
2021/09/14 03:36:30;;;;;;;;;;;;;;;;;;5085343;28;20179;-64
2021/09/14 03:38:57;;;;;;;;;;;;;;;;;;5085674;28;19930;-64
2021/09/14 03:41:24;;;;;;;;;;;;;;;;;;5087517;28;19924;-64
2021/09/14 03:43:51;;;;;;;;;;;;;;;;;;5088057;28;20287;-64
2021/09/14 03:46:18;;;;;;;;;;;;;;;;;;5085026;28;19924;-64
2021/09/14 03:48:45;;;;;;;;;;;;;;;;;;5077901;28;19976;-64
2021/09/14 03:51:12;;;;;;;;;;;;;;;;;;5079640;28;19971;-64
2021/09/14 03:53:39;;;;;;;;;;;;;;;;;;5087334;28;20003;-64
2021/09/14 03:56:06;;;;;;;;;;;;;;;;;;5079042;28;19931;-64
2021/09/14 03:58:33;;;;;;;;;;;;;;;;;;5084782;28;19924;-64
2021/09/14 04:01:00;;;;;;;;;;;;;;;;;;5082093;28;20385;-64
2021/09/14 04:03:37;;;;;;;;;;;;;;;;;;5080069;28;19924;-64
2021/09/14 04:06:21;;;;;;;;;;;;;;;;;;5074487;28;19924;-63
2021/09/14 04:08:52;;;;;;;;;;;;;;;;;;5077130;28;19932;-65
2021/09/14 04:11:21;;;;;;;;;;;;;;;;;;5073394;28;20015;-65
2021/09/14 04:13:47;;;;;;;;;;;;;;;;;;5085493;28;19924;-66
2021/09/14 04:16:14;;;;;;;;;;;;;;;;;;5077085;28;19935;-65
2021/09/14 04:18:41;;;;;;;;;;;;;;;;;;5088131;28;20324;-67
2021/09/14 04:21:08;;;;;;;;;;;;;;;;;;5073990;28;19932;-65
2021/09/14 04:23:35;;;;;;;;;;;;;;;;;;5077459;28;19935;-65
2021/09/14 04:26:02;;;;;;;;;;;;;;;;;;5078914;28;19931;-64
2021/09/14 04:28:31;;;;;;;;;;;;;;;;;;5089094;28;19928;-64
2021/09/14 04:30:57;;;;;;;;;;;;;;;;;;5087266;28;20064;-66
2021/09/14 04:33:24;;;;;;;;;;;;;;;;;;5086906;28;19934;-65
2021/09/14 04:35:51;;;;;;;;;;;;;;;;;;5084200;28;19925;-64
2021/09/14 04:38:21;;;;;;;;;;;;;;;;;;5087356;28;20406;-65
2021/09/14 04:40:48;;;;;;;;;;;;;;;;;;5078144;28;19931;-66
2021/09/14 04:43:15;;;;;;;;;;;;;;;;;;5082749;28;19928;-64
2021/09/14 04:45:42;;;;;;;;;;;;;;;;;;5083991;28;19956;-64
2021/09/14 04:48:10;;;;;;;;;;;;;;;;;;5086944;28;20342;-65
2021/09/14 04:50:37;;;;;;;;;;;;;;;;;;5086967;28;20353;-65
2021/09/14 04:53:04;;;;;;;;;;;;;;;;;;5085901;28;19985;-66
2021/09/14 04:55:31;;;;;;;;;;;;;;;;;;5083536;28;20001;-63
2021/09/14 04:57:58;;;;;;;;;;;;;;;;;;5087616;28;20315;-63
2021/09/14 05:00:25;;;;;;;;;;;;;;;;;;5083575;28;19929;-64
2021/09/14 05:02:52;;;;;;;;;;;;;;;;;;5074615;28;19957;-65
2021/09/14 05:05:19;;;;;;;;;;;;;;;;;;5079517;28;20269;-65
2021/09/14 05:07:46;;;;;;;;;;;;;;;;;;5090394;28;19930;-65
2021/09/14 05:10:13;;;;;;;;;;;;;;;;;;5083060;28;19925;-64
2021/09/14 05:12:40;;;;;;;;;;;;;;;;;;5086415;28;20358;-64
2021/09/14 05:15:08;;;;;;;;;;;;;;;;;;5085986;28;19925;-64
2021/09/14 05:17:35;;;;;;;;;;;;;;;;;;5084516;28;19945;-64
2021/09/14 05:20:02;;;;;;;;;;;;;;;;;;5089230;28;19928;-64
2021/09/14 05:22:33;;;;;;;;;;;;;;;;;;5089325;28;19924;-65
2021/09/14 05:25:00;;;;;;;;;;;;;;;;;;5082019;28;20031;-65
2021/09/14 05:27:27;;;;;;;;;;;;;;;;;;5086348;28;19924;-66
2021/09/14 05:29:54;;;;;;;;;;;;;;;;;;5081861;28;19947;-67
2021/09/14 05:32:20;;;;;;;;;;;;;;;;;;5088599;28;19930;-68
2021/09/14 05:34:47;;;;;;;;;;;;;;;;;;5085410;28;19930;-64
2021/09/14 05:37:14;;;;;;;;;;;;;;;;;;5079270;28;19924;-67
2021/09/14 05:39:41;;;;;;;;;;;;;;;;;;5081717;28;20066;-68
2021/09/14 05:42:08;;;;;;;;;;;;;;;;;;5088904;28;19943;-67
2021/09/14 05:44:35;;;;;;;;;;;;;;;;;;5081109;28;20315;-67
2021/09/14 05:47:02;;;;;;;;;;;;;;;;;;5088692;28;20015;-67
2021/09/14 05:49:29;;;;;;;;;;;;;;;;;;5088717;28;20319;-65
2021/09/14 05:51:58;;;;;;;;;;;;;;;;;;5083689;28;19932;-66
2021/09/14 05:54:25;;;;;;;;;;;;;;;;;;5080760;28;20315;-67
2021/09/14 05:56:52;;;;;;;;;;;;;;;;;;5088960;28;19924;-66
2021/09/14 05:59:19;;;;;;;;;;;;;;;;;;5089018;28;19928;-66
2021/09/14 06:01:46;;;;;;;;;;;;;;;;;;5077948;28;19970;-66
2021/09/14 06:04:13;;;;;;;;;;;;;;;;;;5086104;28;19978;-66
2021/09/14 06:06:40;;;;;;;;;;;;;;;;;;5088937;28;20119;-68
2021/09/14 06:09:07;;;;;;;;;;;;;;;;;;5088648;28;19924;-65
2021/09/14 06:11:34;;;;;;;;;;;;;;;;;;5088463;28;19924;-68
2021/09/14 06:14:01;;;;;;;;;;;;;;;;;;5085297;28;19924;-66
2021/09/14 06:16:29;;;;;;;;;;;;;;;;;;5088054;28;20288;-66
2021/09/14 06:18:56;;;;;;;;;;;;;;;;;;5088252;28;19924;-67
2021/09/14 06:21:23;;;;;;;;;;;;;;;;;;5088582;28;19924;-67
2021/09/14 06:23:50;;;;;;;;;;;;;;;;;;5085080;28;19924;-68
2021/09/14 06:26:17;;;;;;;;;;;;;;;;;;5087470;28;20027;-65
2021/09/14 06:28:45;;;;;;;;;;;;;;;;;;5088362;28;19930;-66
2021/09/14 06:31:13;;;;;;;;;;;;;;;;;;5088135;28;19931;-68
2021/09/14 06:33:40;;;;;;;;;;;;;;;;;;5085162;28;19931;-69
2021/09/14 06:36:07;;;;;;;;;;;;;;;;;;5087101;28;19985;-67
2021/09/14 06:38:34;;;;;;;;;;;;;;;;;;5088967;28;20351;-66
2021/09/14 06:41:01;;;;;;;;;;;;;;;;;;5088440;28;19924;-65
2021/09/14 06:43:28;;;;;;;;;;;;;;;;;;5085548;28;19934;-65
2021/09/14 06:45:55;;;;;;;;;;;;;;;;;;5086940;28;19936;-66
2021/09/14 06:48:22;;;;;;;;;;;;;;;;;;5088181;28;20019;-64
2021/09/14 06:50:49;;;;;;;;;;;;;;;;;;5081927;28;19946;-66
2021/09/14 06:53:17;;;;;;;;;;;;;;;;;;5085215;28;19928;-67
2021/09/14 06:55:44;;;;;;;;;;;;;;;;;;5086693;28;19960;-65
2021/09/14 06:58:11;;;;;;;;;;;;;;;;;;5087808;28;19931;-66
2021/09/14 07:00:38;;;;;;;;;;;;;;;;;;5082691;28;19960;-65
2021/09/14 07:03:05;;;;;;;;;;;;;;;;;;5083928;28;19931;-64
2021/09/14 07:05:32;;;;;;;;;;;;;;;;;;5086370;28;20368;-65
2021/09/14 07:07:59;;;;;;;;;;;;;;;;;;5086576;28;19924;-66
2021/09/14 07:10:26;;;;;;;;;;;;;;;;;;5081921;28;19932;-66
2021/09/14 07:12:53;;;;;;;;;;;;;;;;;;5085201;28;20399;-66
2021/09/14 07:15:20;;;;;;;;;;;;;;;;;;5085427;28;19936;-64
2021/09/14 07:17:47;;;;;;;;;;;;;;;;;;5087629;28;19930;-67
2021/09/14 07:20:14;;;;;;;;;;;;;;;;;;5086976;28;20273;-67
2021/09/14 07:22:41;;;;;;;;;;;;;;;;;;5085565;28;19924;-66
2021/09/14 07:25:08;;;;;;;;;;;;;;;;;;5085086;28;20327;-67
2021/09/14 07:27:35;;;;;;;;;;;;;;;;;;5087180;28;19930;-66
2021/09/14 07:30:02;;;;;;;;;;;;;;;;;;5086893;28;19928;-65
2021/09/14 07:32:29;;;;;;;;;;;;;;;;;;5085217;28;19930;-67
2021/09/14 07:34:56;;;;;;;;;;;;;;;;;;5084981;28;19928;-67
2021/09/14 07:37:23;;;;;;;;;;;;;;;;;;5086753;28;19924;-67
2021/09/14 07:39:50;;;;;;;;;;;;;;;;;;5086860;28;19946;-67
2021/09/14 07:42:18;;;;;;;;;;;;;;;;;;5085058;28;19930;-65
2021/09/14 07:44:45;;;;;;;;;;;;;;;;;;5084579;28;20010;-67
2021/09/14 07:47:12;;;;;;;;;;;;;;;;;;5086977;28;19924;-65
2021/09/14 07:49:39;;;;;;;;;;;;;;;;;;5086272;28;20360;-66
2021/09/14 07:52:06;;;;;;;;;;;;;;;;;;5083357;28;19927;-67
2021/09/14 07:54:33;;;;;;;;;;;;;;;;;;5083738;28;19928;-68
2021/09/14 07:57:00;;;;;;;;;;;;;;;;;;5086737;28;20022;-67
2021/09/14 07:59:27;;;;;;;;;;;;;;;;;;5079697;28;20011;-67
2021/09/14 08:01:54;;;;;;;;;;;;;;;;;;5074263;28;19924;-65
2021/09/14 08:04:21;;;;;;;;;;;;;;;;;;5083501;28;19924;-67
2021/09/14 08:06:47;;;;;;;;;;;;;;;;;;5071435;28;19950;-67
2021/09/14 08:09:15;;;;;;;;;;;;;;;;;;5086664;28;20292;-67
2021/09/14 08:11:42;;;;;;;;;;;;;;;;;;5085788;28;19977;-68
2021/09/14 08:14:09;;;;;;;;;;;;;;;;;;5083247;28;19924;-67
2021/09/14 08:16:36;;;;;;;;;;;;;;;;;;5086810;28;19924;-67
2021/09/14 08:19:03;;;;;;;;;;;;;;;;;;5086778;28;20304;-67
2021/09/14 08:21:30;;;;;;;;;;;;;;;;;;5085955;28;20007;-68
2021/09/14 08:23:56;;;;;;;;;;;;;;;;;;5082713;28;19928;-67
2021/09/14 08:26:23;;;;;;;;;;;;;;;;;;5086755;28;19931;-66
2021/09/14 08:28:50;;;;;;;;;;;;;;;;;;5086425;28;20414;-66
2021/09/14 08:31:17;;;;;;;;;;;;;;;;;;5086382;28;20304;-67
2021/09/14 08:33:44;;;;;;;;;;;;;;;;;;5080793;28;20202;-67
2021/09/14 08:36:11;;;;;;;;;;;;;;;;;;5078466;28;19924;-66
2021/09/14 08:38:38;;;;;;;;;;;;;;;;;;5090146;28;19959;-68
2021/09/14 08:41:05;;;;;;;;;;;;;;;;;;5090797;28;19925;-67
2021/09/14 08:43:37;;;;;;;;;;;;;;;;;;5086394;28;19924;-67
2021/09/14 08:46:04;;;;;;;;;;;;;;;;;;5077506;28;19924;-68
2021/09/14 08:48:31;;;;;;;;;;;;;;;;;;5090341;28;20396;-66
2021/09/14 08:50:58;;;;;;;;;;;;;;;;;;5089236;28;19924;-66
2021/09/14 08:53:25;;;;;;;;;;;;;;;;;;5086729;28;19931;-67
2021/09/14 08:55:53;;;;;;;;;;;;;;;;;;5076488;28;19924;-67
2021/09/14 08:58:21;;;;;;;;;;;;;;;;;;5090191;28;20344;-67
2021/09/14 09:00:49;;;;;;;;;;;;;;;;;;5083179;28;19954;-67
2021/09/14 09:03:16;;;;;;;;;;;;;;;;;;5086227;28;20400;-67
2021/09/14 09:05:43;;;;;;;;;;;;;;;;;;5076772;28;19924;-67
2021/09/14 09:08:10;;;;;;;;;;;;;;;;;;5089937;28;19927;-66
2021/09/14 09:10:37;;;;;;;;;;;;;;;;;;5090007;28;20372;-67
2021/09/14 09:13:04;;;;;;;;;;;;;;;;;;5081712;28;19983;-66
2021/09/14 09:15:33;;;;;;;;;;;;;;;;;;5089746;28;20367;-66
2021/09/14 09:18:00;;;;;;;;;;;;;;;;;;5089322;28;20307;-67
2021/09/14 09:20:27;;;;;;;;;;;;;;;;;;5079979;28;20382;-67
2021/09/14 09:22:54;;;;;;;;;;;;;;;;;;5081764;28;19935;-67
2021/09/14 09:25:21;;;;;;;;;;;;;;;;;;5089018;28;20031;-67
2021/09/14 09:27:48;;;;;;;;;;;;;;;;;;5089337;28;19930;-68
2021/09/14 09:30:15;;;;;;;;;;;;;;;;;;5088975;28;19931;-68
2021/09/14 09:32:42;;;;;;;;;;;;;;;;;;5085580;28;19931;-68
2021/09/14 09:35:09;;;;;;;;;;;;;;;;;;5088961;28;20406;-67
2021/09/14 09:37:36;;;;;;;;;;;;;;;;;;5089409;28;20035;-67
2021/09/14 09:40:03;;;;;;;;;;;;;;;;;;5089036;28;19931;-67
2021/09/14 09:42:30;;;;;;;;;;;;;;;;;;5102965;22;20169;-67
2021/09/14 09:44:56;;;;;;;;;;;;;;;;;;5100734;28;19945;-67
2021/09/14 09:47:23;;;;;;;;;;;;;;;;;;5100362;28;19928;-67
2021/09/14 09:49:50;;;;;;;;;;;;;;;;;;5098983;28;19930;-67
2021/09/14 09:52:17;;;;;;;;;;;;;;;;;;5098454;28;19934;-66
2021/09/14 09:54:44;;;;;;;;;;;;;;;;;;5101819;28;20310;-67
2021/09/14 09:57:11;;;;;;;;;;;;;;;;;;5100782;28;20379;-67
2021/09/14 09:59:38;;;;;;;;;;;;;;;;;;5098753;28;20014;-67
2021/09/14 10:02:05;;;;;;;;;;;;;;;;;;5098812;28;20306;-66
2021/09/14 10:04:32;;;;;;;;;;;;;;;;;;5101887;28;19924;-67
2021/09/14 10:06:59;;;;;;;;;;;;;;;;;;5101327;28;19928;-66
2021/09/14 10:09:26;;;;;;;;;;;;;;;;;;5098466;28;19924;-67
2021/09/14 10:11:53;;;;;;;;;;;;;;;;;;5098862;28;19931;-69
2021/09/14 10:14:20;;;;;;;;;;;;;;;;;;5100732;28;19924;-66
2021/09/14 10:16:48;;;;;;;;;;;;;;;;;;5101388;28;19930;-67
2021/09/14 10:19:15;;;;;;;;;;;;;;;;;;5098378;28;20415;-67
2021/09/14 10:21:42;;;;;;;;;;;;;;;;;;5098250;28;19971;-66
2021/09/14 10:24:09;;;;;;;;;;;;;;;;;;5100387;28;20303;-66
2021/09/14 10:26:36;;;;;;;;;;;;;;;;;;5100680;28;19924;-67
2021/09/14 10:29:03;;;;;;;;;;;;;;;;;;5097865;28;19931;-67
2021/09/14 10:31:31;;;;;;;;;;;;;;;;;;5097649;28;19924;-67
2021/09/14 10:33:58;;;;;;;;;;;;;;;;;;5099678;28;19924;-67
2021/09/14 10:36:25;;;;;;;;;;;;;;;;;;5098139;28;19924;-67
2021/09/14 10:38:52;;;;;;;;;;;;;;;;;;5098173;28;19931;-67
2021/09/14 10:41:19;;;;;;;;;;;;;;;;;;5097748;28;20013;-67
2021/09/14 10:43:46;;;;;;;;;;;;;;;;;;5099204;28;20026;-67
2021/09/14 10:46:13;;;;;;;;;;;;;;;;;;5100847;28;19923;-66
2021/09/14 10:48:39;;;;;;;;;;;;;;;;;;5097890;28;19924;-67
2021/09/14 10:51:06;;;;;;;;;;;;;;;;;;5097473;28;19931;-67
2021/09/14 10:53:35;;;;;;;;;;;;;;;;;;5099032;28;20410;-67
2021/09/14 10:56:02;;;;;;;;;;;;;;;;;;5100423;28;19948;-67
2021/09/14 10:58:29;;;;;;;;;;;;;;;;;;5097901;28;19924;-66
2021/09/14 11:00:56;;;;;;;;;;;;;;;;;;5097106;28;19924;-67
2021/09/14 11:03:23;;;;;;;;;;;;;;;;;;5098798;28;20034;-67
2021/09/14 11:05:50;;;;;;;;;;;;;;;;;;5101105;28;20315;-67
2021/09/14 11:08:17;;;;;;;;;;;;;;;;;;5097552;28;19928;-67
2021/09/14 11:10:44;;;;;;;;;;;;;;;;;;5096796;28;19930;-67
2021/09/14 11:13:11;;;;;;;;;;;;;;;;;;5098675;28;19931;-67
2021/09/14 11:15:38;;;;;;;;;;;;;;;;;;5101093;28;19924;-67
2021/09/14 11:18:05;;;;;;;;;;;;;;;;;;5090449;28;19928;-67
2021/09/14 11:20:32;;;;;;;;;;;;;;;;;;5096919;28;20314;-67
2021/09/14 11:23:01;;;;;;;;;;;;;;;;;;5097218;28;19924;-67
2021/09/14 11:25:28;;;;;;;;;;;;;;;;;;5100947;28;20410;-68
2021/09/14 11:27:55;;;;;;;;;;;;;;;;;;5090188;28;19981;-68
2021/09/14 11:30:22;;;;;;;;;;;;;;;;;;5097611;28;19931;-67
2021/09/14 11:32:50;;;;;;;;;;;;;;;;;;5098107;28;19930;-67
2021/09/14 11:35:17;;;;;;;;;;;;;;;;;;5101383;28;19923;-69
2021/09/14 11:37:44;;;;;;;;;;;;;;;;;;5098532;28;19934;-67
2021/09/14 11:40:11;;;;;;;;;;;;;;;;;;5098447;28;20368;-67
2021/09/14 11:42:38;;;;;;;;;;;;;;;;;;5097689;28;20264;-67
2021/09/14 11:45:05;;;;;;;;;;;;;;;;;;5100601;28;19939;-66
2021/09/14 11:47:32;;;;;;;;;;;;;;;;;;5097704;28;19944;-67
2021/09/14 11:49:59;;;;;;;;;;;;;;;;;;5095824;28;19924;-67
2021/09/14 11:52:26;;;;;;;;;;;;;;;;;;5097050;28;20295;-67
2021/09/14 11:54:54;;;;;;;;;;;;;;;;;;5100615;28;20307;-67
2021/09/14 11:57:21;;;;;;;;;;;;;;;;;;5097391;28;20334;-67
2021/09/14 11:59:48;;;;;;;;;;;;;;;;;;5096486;28;20199;-67
2021/09/14 12:02:15;;;;;;;;;;;;;;;;;;5096517;28;19969;-67
2021/09/14 12:04:42;;;;;;;;;;;;;;;;;;5100365;28;20290;-66
2021/09/14 12:07:09;;;;;;;;;;;;;;;;;;5097043;28;19924;-66
2021/09/14 12:09:36;;;;;;;;;;;;;;;;;;5096193;28;20006;-66
2021/09/14 12:12:03;;;;;;;;;;;;;;;;;;5096889;28;20285;-66
2021/09/14 12:14:30;;;;;;;;;;;;;;;;;;5088920;28;19923;-66
2021/09/14 12:16:59;;;;;;;;;;;;;;;;;;5097742;28;19928;-67
2021/09/14 12:19:26;;;;;;;;;;;;;;;;;;5096367;28;19924;-66
2021/09/14 12:21:53;;;;;;;;;;;;;;;;;;5096821;28;20279;-66
2021/09/14 12:24:20;;;;;;;;;;;;;;;;;;5088370;28;20004;-66
2021/09/14 12:26:50;;;;;;;;;;;;;;;;;;5097916;28;19930;-67
2021/09/14 12:29:17;;;;;;;;;;;;;;;;;;5096387;28;20190;-69
2021/09/14 12:31:44;;;;;;;;;;;;;;;;;;5097029;28;19924;-67
2021/09/14 12:34:13;;;;;;;;;;;;;;;;;;5100769;28;19928;-68
2021/09/14 12:36:41;;;;;;;;;;;;;;;;;;5097246;28;19932;-67
2021/09/14 12:39:08;;;;;;;;;;;;;;;;;;5096412;28;19932;-68
2021/09/14 12:41:35;;;;;;;;;;;;;;;;;;5096430;28;19935;-68
2021/09/14 12:44:02;;;;;;;;;;;;;;;;;;5100275;28;19951;-67
2021/09/14 12:46:28;;;;;;;;;;;;;;;;;;5097126;28;19981;-68
2021/09/14 12:48:55;;;;;;;;;;;;;;;;;;5096499;28;19935;-68
2021/09/14 12:51:22;;;;;;;;;;;;;;;;;;5091969;28;19924;-68
2021/09/14 12:53:49;;;;;;;;;;;;;;;;;;5100160;28;19924;-67
2021/09/14 12:56:18;;;;;;;;;;;;;;;;;;5097985;28;20285;-68
2021/09/14 12:58:45;;;;;;;;;;;;;;;;;;5096395;28;19928;-68
2021/09/14 13:01:12;;;;;;;;;;;;;;;;;;5091790;28;20035;-67
2021/09/14 13:03:39;;;;;;;;;;;;;;;;;;5099521;28;19931;-67
2021/09/14 13:06:06;;;;;;;;;;;;;;;;;;5088214;28;19924;-67
2021/09/14 13:08:32;;;;;;;;;;;;;;;;;;5092610;28;19931;-68
2021/09/14 13:10:59;;;;;;;;;;;;;;;;;;5095628;28;19924;-68
2021/09/14 13:16:11;;;;;;;;;;;;;;;;;;5090042;28;19919;-68
2021/09/14 13:18:38;;;;;;;;;;;;;;;;;;5097058;28;20403;-67
2021/09/14 13:21:05;;;;;;;;;;;;;;;;;;5094544;28;19928;-68
2021/09/14 13:23:32;;;;;;;;;;;;;;;;;;5095996;28;19924;-67
2021/09/14 13:25:59;;;;;;;;;;;;;;;;;;5099296;28;20326;-67
2021/09/14 13:28:26;;;;;;;;;;;;;;;;;;5099984;28;19928;-68
2021/09/14 13:30:53;;;;;;;;;;;;;;;;;;5100574;28;19928;-68
2021/09/14 13:33:20;;;;;;;;;;;;;;;;;;5102874;28;19931;-68
2021/09/14 13:35:48;;;;;;;;;;;;;;;;;;5099374;28;20399;-68
2021/09/14 13:38:15;;;;;;;;;;;;;;;;;;5099654;28;20326;-68
2021/09/14 13:40:45;;;;;;;;;;;;;;;;;;5100250;28;19924;-68
2021/09/14 13:43:12;;;;;;;;;;;;;;;;;;5102554;28;19977;-67
2021/09/14 13:48:23;;;;;;;;;;;;;;;;;;5095457;28;20402;-67
2021/09/14 13:50:50;;;;;;;;;;;;;;;;;;5102238;28;20425;-68
2021/09/14 13:53:18;;;;;;;;;;;;;;;;;;5100195;28;19928;-67
2021/09/14 13:55:45;;;;;;;;;;;;;;;;;;5099096;28;20005;-67
2021/09/14 13:58:11;;;;;;;;;;;;;;;;;;5099244;28;19924;-67
2021/09/14 14:00:38;;;;;;;;;;;;;;;;;;5101934;28;19945;-66
2021/09/14 14:03:05;;;;;;;;;;;;;;;;;;5100294;28;20018;-66
2021/09/14 14:05:32;;;;;;;;;;;;;;;;;;5098875;28;20311;-67
2021/09/14 14:07:59;;;;;;;;;;;;;;;;;;5099021;28;19924;-68
2021/09/14 14:10:26;;;;;;;;;;;;;;;;;;5101686;28;19930;-69
2021/09/14 14:12:53;;;;;;;;;;;;;;;;;;5100571;28;20383;-67
2021/09/14 14:15:20;;;;;;;;;;;;;;;;;;5099103;28;19968;-67
2021/09/14 14:17:47;;;;;;;;;;;;;;;;;;5098510;28;19925;-68
2021/09/14 14:20:14;;;;;;;;;;;;;;;;;;5099694;28;20014;-68
2021/09/14 14:22:41;;;;;;;;;;;;;;;;;;5100349;28;19924;-67
2021/09/14 14:25:09;;;;;;;;;;;;;;;;;;5098371;28;19932;-67
2021/09/14 14:27:36;;;;;;;;;;;;;;;;;;5098411;28;19928;-68
2021/09/14 14:30:03;;;;;;;;;;;;;;;;;;5100522;28;19924;-67
2021/09/14 14:32:30;;;;;;;;;;;;;;;;;;5099998;28;20026;-68
2021/09/14 14:34:57;;;;;;;;;;;;;;;;;;5097983;28;19935;-69
2021/09/14 14:37:24;;;;;;;;;;;;;;;;;;5098294;28;19924;-69
2021/09/14 14:39:51;;;;;;;;;;;;;;;;;;5099982;28;20019;-68
2021/09/14 14:42:18;;;;;;;;;;;;;;;;;;5100281;28;20333;-69
2021/09/14 14:44:47;;;;;;;;;;;;;;;;;;5096816;28;21260;-68
2021/09/14 14:47:14;;;;;;;;;;;;;;;;;;5097660;28;20366;-68
2021/09/14 14:49:41;;;;;;;;;;;;;;;;;;5099793;28;20295;-68
2021/09/14 14:52:08;;;;;;;;;;;;;;;;;;5099970;28;20312;-66
2021/09/14 14:54:35;;;;;;;;;;;;;;;;;;5097713;28;20376;-67
2021/09/14 14:57:02;;;;;;;;;;;;;;;;;;5090393;28;19924;-67
2021/09/14 14:59:29;;;;;;;;;;;;;;;;;;5099289;28;19930;-67
2021/09/14 15:01:56;;;;;;;;;;;;;;;;;;5099805;28;20397;-67
2021/09/14 15:04:23;;;;;;;;;;;;;;;;;;5097504;28;19930;-69
2021/09/14 15:06:50;;;;;;;;;;;;;;;;;;5097613;28;19930;-68
2021/09/14 15:09:19;;;;;;;;;;;;;;;;;;5099389;28;20356;-69
2021/09/14 15:11:46;;;;;;;;;;;;;;;;;;5100372;28;19923;-68
2021/09/14 15:14:13;;;;;;;;;;;;;;;;;;5097022;28;19931;-68
2021/09/14 15:16:40;;;;;;;;;;;;;;;;;;5097395;28;20460;-66
2021/09/14 15:19:07;;;;;;;;;;;;;;;;;;5098991;28;19931;-66
2021/09/14 15:21:34;;;;;;;;;;;;;;;;;;5100171;28;19924;-68
2021/09/14 15:24:01;;;;;;;;;;;;;;;;;;5096937;28;19930;-68
2021/09/14 15:26:28;;;;;;;;;;;;;;;;;;5097172;28;20311;-68
2021/09/14 15:28:55;;;;;;;;;;;;;;;;;;5098488;28;19928;-68
2021/09/14 15:31:22;;;;;;;;;;;;;;;;;;5100201;28;19930;-68
2021/09/14 15:33:49;;;;;;;;;;;;;;;;;;5097155;28;19925;-67
2021/09/14 15:36:16;;;;;;;;;;;;;;;;;;5084706;28;19951;-67
2021/09/14 15:38:43;;;;;;;;;;;;;;;;;;5098074;28;20395;-66
2021/09/14 15:41:11;;;;;;;;;;;;;;;;;;5100098;28;19930;-66
2021/09/14 15:43:37;;;;;;;;;;;;;;;;;;5110617;22;20026;-67
2021/09/14 15:46:04;;;;;;;;;;;;;;;;;;5097006;28;19963;-67
2021/09/14 15:48:32;;;;;;;;;;;;;;;;;;5098320;28;19935;-67
2021/09/14 15:50:59;;;;;;;;;;;;;;;;;;5100695;28;19992;-64
2021/09/14 15:53:28;;;;;;;;;;;;;;;;;;5090038;28;19924;-66
2021/09/14 15:55:55;;;;;;;;;;;;;;;;;;5096752;28;19924;-66
2021/09/14 15:58:22;;;;;;;;;;;;;;;;;;5097417;28;19928;-66
2021/09/14 16:00:49;;;;;;;;;;;;;;;;;;5100106;28;20322;-65
2021/09/14 16:03:16;;;;;;;;;;;;;;;;;;5089844;28;19924;-66
2021/09/14 16:05:43;;;;;;;;;;;;;;;;;;5096332;28;19924;-67
2021/09/14 16:08:10;;;;;;;;;;;;;;;;;;5097174;28;20335;-66
2021/09/14 16:10:37;;;;;;;;;;;;;;;;;;5099495;28;19923;-67
2021/09/14 16:13:04;;;;;;;;;;;;;;;;;;5096082;28;20379;-66
2021/09/14 16:15:31;;;;;;;;;;;;;;;;;;5096442;28;19925;-65
2021/09/14 16:17:58;;;;;;;;;;;;;;;;;;5096935;28;19924;-65
2021/09/14 16:20:25;;;;;;;;;;;;;;;;;;5099958;28;19981;-66
2021/09/14 16:22:52;;;;;;;;;;;;;;;;;;5096748;28;19947;-67
2021/09/14 16:25:21;;;;;;;;;;;;;;;;;;5096201;28;20015;-66
2021/09/14 16:27:47;;;;;;;;;;;;;;;;;;5096881;28;19947;-66
2021/09/14 16:30:14;;;;;;;;;;;;;;;;;;5099974;28;19927;-66
2021/09/14 16:32:41;;;;;;;;;;;;;;;;;;5096298;28;20410;-66
2021/09/14 16:35:08;;;;;;;;;;;;;;;;;;5096377;28;19978;-65
2021/09/14 16:37:35;;;;;;;;;;;;;;;;;;5096268;28;19928;-67
2021/09/14 16:40:02;;;;;;;;;;;;;;;;;;5099817;28;19953;-67
2021/09/14 16:42:29;;;;;;;;;;;;;;;;;;5097000;28;19934;-67
2021/09/14 16:44:56;;;;;;;;;;;;;;;;;;5096473;28;20379;-66
2021/09/14 16:47:23;;;;;;;;;;;;;;;;;;5096854;28;19924;-67
2021/09/14 16:49:50;;;;;;;;;;;;;;;;;;5084117;28;20374;-68
2021/09/14 16:52:17;;;;;;;;;;;;;;;;;;5095057;28;19927;-66
2021/09/14 16:54:44;;;;;;;;;;;;;;;;;;5097992;28;20372;-67
2021/09/14 16:57:11;;;;;;;;;;;;;;;;;;5095615;28;20010;-66
2021/09/14 16:59:38;;;;;;;;;;;;;;;;;;5103593;28;20223;-67
2021/09/14 17:02:05;;;;;;;;;;;;;;;;;;5101069;28;19954;-65
2021/09/14 17:04:32;;;;;;;;;;;;;;;;;;5100073;28;19931;-67
2021/09/14 17:06:59;;;;;;;;;;;;;;;;;;5099807;28;20295;-66
2021/09/14 17:09:26;;;;;;;;;;;;;;;;;;5103418;28;19928;-66
2021/09/14 17:11:53;;;;;;;;;;;;;;;;;;5101442;28;19934;-67
2021/09/14 17:14:20;;;;;;;;;;;;;;;;;;5099858;28;19930;-65
2021/09/14 17:16:49;;;;;;;;;;;;;;;;;;5100016;28;19977;-66
2021/09/14 17:19:16;;;;;;;;;;;;;;;;;;5102914;28;20409;-67
2021/09/14 17:21:43;;;;;;;;;;;;;;;;;;5101572;28;20343;-67
2021/09/14 17:24:10;;;;;;;;;;;;;;;;;;5099697;28;19925;-67
2021/09/14 17:26:39;;;;;;;;;;;;;;;;;;5099663;28;20014;-67
2021/09/14 17:29:06;;;;;;;;;;;;;;;;;;5102747;28;19924;-67
2021/09/14 17:31:33;;;;;;;;;;;;;;;;;;5100889;28;19930;-68
2021/09/14 17:34:00;;;;;;;;;;;;;;;;;;5099713;28;19924;-66
2021/09/14 17:36:27;;;;;;;;;;;;;;;;;;5099529;28;19931;-67
2021/09/14 17:38:54;;;;;;;;;;;;;;;;;;5102604;28;19924;-66